sensor_id;sensor_type;location;lat;lon;timestamp;P1;durP1;ratioP1;P2;durP2;ratioP2
7795;SDS011;3942;51.518;6.912;2024-02-26T00:04:05;5.20;;;2.58;;
7795;SDS011;3942;51.518;6.912;2024-02-26T00:09:07;5.07;;;2.30;;
7795;SDS011;3942;51.518;6.912;2024-02-26T00:14:09;6.07;;;1.83;;
7795;SDS011;3942;51.518;6.912;2024-02-26T00:19:13;3.15;;;1.95;;
7795;SDS011;3942;51.518;6.912;2024-02-26T00:24:15;4.85;;;1.85;;
7795;SDS011;3942;51.518;6.912;2024-02-26T00:29:17;3.83;;;2.30;;
7795;SDS011;3942;51.518;6.912;2024-02-26T00:34:20;12.40;;;3.90;;
7795;SDS011;3942;51.518;6.912;2024-02-26T00:39:22;6.07;;;2.65;;
7795;SDS011;3942;51.518;6.912;2024-02-26T00:44:24;5.22;;;2.92;;
7795;SDS011;3942;51.518;6.912;2024-02-26T00:49:28;5.72;;;3.00;;
7795;SDS011;3942;51.518;6.912;2024-02-26T00:54:29;5.25;;;2.92;;
7795;SDS011;3942;51.518;6.912;2024-02-26T00:59:31;6.13;;;2.92;;
7795;SDS011;3942;51.518;6.912;2024-02-26T01:04:35;3.63;;;2.30;;
7795;SDS011;3942;51.518;6.912;2024-02-26T01:09:37;3.88;;;2.55;;
7795;SDS011;3942;51.518;6.912;2024-02-26T01:14:39;6.38;;;2.92;;
7795;SDS011;3942;51.518;6.912;2024-02-26T01:19:43;5.43;;;2.50;;
7795;SDS011;3942;51.518;6.912;2024-02-26T01:24:44;4.47;;;2.72;;
7795;SDS011;3942;51.518;6.912;2024-02-26T01:29:47;3.70;;;2.33;;
7795;SDS011;3942;51.518;6.912;2024-02-26T01:34:50;4.00;;;2.72;;
7795;SDS011;3942;51.518;6.912;2024-02-26T01:39:52;9.30;;;3.05;;
7795;SDS011;3942;51.518;6.912;2024-02-26T01:44:54;5.15;;;3.58;;
7795;SDS011;3942;51.518;6.912;2024-02-26T01:49:58;6.53;;;3.63;;
7795;SDS011;3942;51.518;6.912;2024-02-26T01:55:00;7.53;;;3.53;;
7795;SDS011;3942;51.518;6.912;2024-02-26T02:00:03;6.43;;;2.70;;
7795;SDS011;3942;51.518;6.912;2024-02-26T02:05:07;5.03;;;2.17;;
7795;SDS011;3942;51.518;6.912;2024-02-26T02:10:10;4.38;;;2.83;;
7795;SDS011;3942;51.518;6.912;2024-02-26T02:15:13;4.82;;;2.47;;
7795;SDS011;3942;51.518;6.912;2024-02-26T02:20:16;6.35;;;2.88;;
7795;SDS011;3942;51.518;6.912;2024-02-26T02:25:20;3.55;;;2.33;;
7795;SDS011;3942;51.518;6.912;2024-02-26T02:30:23;5.00;;;3.03;;
7795;SDS011;3942;51.518;6.912;2024-02-26T02:35:26;4.68;;;3.13;;
7795;SDS011;3942;51.518;6.912;2024-02-26T02:40:29;3.60;;;2.28;;
7795;SDS011;3942;51.518;6.912;2024-02-26T02:45:31;3.55;;;2.22;;
7795;SDS011;3942;51.518;6.912;2024-02-26T02:50:33;5.80;;;2.90;;
7795;SDS011;3942;51.518;6.912;2024-02-26T02:55:37;3.65;;;2.10;;
7795;SDS011;3942;51.518;6.912;2024-02-26T03:00:39;5.35;;;2.50;;
7795;SDS011;3942;51.518;6.912;2024-02-26T03:05:41;4.35;;;2.70;;
7795;SDS011;3942;51.518;6.912;2024-02-26T03:10:45;3.28;;;2.17;;
7795;SDS011;3942;51.518;6.912;2024-02-26T03:15:47;3.88;;;2.40;;
7795;SDS011;3942;51.518;6.912;2024-02-26T03:20:48;4.55;;;2.47;;
7795;SDS011;3942;51.518;6.912;2024-02-26T03:25:52;4.13;;;2.30;;
7795;SDS011;3942;51.518;6.912;2024-02-26T03:30:56;5.78;;;2.15;;
7795;SDS011;3942;51.518;6.912;2024-02-26T03:35:57;4.68;;;2.88;;
7795;SDS011;3942;51.518;6.912;2024-02-26T03:41:01;4.63;;;2.50;;
7795;SDS011;3942;51.518;6.912;2024-02-26T03:46:03;4.55;;;2.63;;
7795;SDS011;3942;51.518;6.912;2024-02-26T03:51:05;3.20;;;2.22;;
7795;SDS011;3942;51.518;6.912;2024-02-26T03:56:09;5.63;;;3.00;;
7795;SDS011;3942;51.518;6.912;2024-02-26T04:01:13;7.32;;;3.63;;
7795;SDS011;3942;51.518;6.912;2024-02-26T04:06:15;4.70;;;2.97;;
7795;SDS011;3942;51.518;6.912;2024-02-26T04:11:22;6.40;;;3.20;;
7795;SDS011;3942;51.518;6.912;2024-02-26T04:16:24;7.05;;;3.78;;
7795;SDS011;3942;51.518;6.912;2024-02-26T04:21:26;4.80;;;3.03;;
7795;SDS011;3942;51.518;6.912;2024-02-26T04:26:30;4.50;;;3.00;;
7795;SDS011;3942;51.518;6.912;2024-02-26T04:31:32;8.07;;;2.88;;
7795;SDS011;3942;51.518;6.912;2024-02-26T04:36:34;4.45;;;3.47;;
7795;SDS011;3942;51.518;6.912;2024-02-26T04:41:37;6.50;;;3.05;;
7795;SDS011;3942;51.518;6.912;2024-02-26T04:46:39;5.93;;;3.25;;
7795;SDS011;3942;51.518;6.912;2024-02-26T04:51:42;4.47;;;3.22;;
7795;SDS011;3942;51.518;6.912;2024-02-26T04:56:45;6.97;;;3.05;;
7795;SDS011;3942;51.518;6.912;2024-02-26T05:01:47;4.68;;;2.83;;
7795;SDS011;3942;51.518;6.912;2024-02-26T05:06:51;6.68;;;3.17;;
7795;SDS011;3942;51.518;6.912;2024-02-26T05:11:55;5.65;;;3.30;;
7795;SDS011;3942;51.518;6.912;2024-02-26T05:16:58;7.68;;;3.30;;
7795;SDS011;3942;51.518;6.912;2024-02-26T05:22:00;6.43;;;3.55;;
7795;SDS011;3942;51.518;6.912;2024-02-26T05:27:04;4.28;;;3.25;;
7795;SDS011;3942;51.518;6.912;2024-02-26T05:32:06;5.72;;;3.67;;
7795;SDS011;3942;51.518;6.912;2024-02-26T05:37:08;4.88;;;3.28;;
7795;SDS011;3942;51.518;6.912;2024-02-26T05:42:11;6.18;;;3.20;;
7795;SDS011;3942;51.518;6.912;2024-02-26T05:47:13;4.38;;;3.10;;
7795;SDS011;3942;51.518;6.912;2024-02-26T05:52:17;4.53;;;3.10;;
7795;SDS011;3942;51.518;6.912;2024-02-26T05:57:20;6.07;;;3.58;;
7795;SDS011;3942;51.518;6.912;2024-02-26T06:02:22;4.97;;;3.25;;
7795;SDS011;3942;51.518;6.912;2024-02-26T06:07:24;5.72;;;3.92;;
7795;SDS011;3942;51.518;6.912;2024-02-26T06:12:28;5.60;;;3.40;;
7795;SDS011;3942;51.518;6.912;2024-02-26T06:17:30;5.15;;;3.42;;
7795;SDS011;3942;51.518;6.912;2024-02-26T06:22:33;10.65;;;3.90;;
7795;SDS011;3942;51.518;6.912;2024-02-26T06:27:37;7.57;;;3.67;;
7795;SDS011;3942;51.518;6.912;2024-02-26T06:32:39;6.90;;;3.67;;
7795;SDS011;3942;51.518;6.912;2024-02-26T06:37:41;6.75;;;4.55;;
7795;SDS011;3942;51.518;6.912;2024-02-26T06:42:44;6.35;;;3.45;;
7795;SDS011;3942;51.518;6.912;2024-02-26T06:47:46;6.18;;;4.65;;
7795;SDS011;3942;51.518;6.912;2024-02-26T06:52:48;7.60;;;4.15;;
7795;SDS011;3942;51.518;6.912;2024-02-26T06:57:52;6.75;;;3.58;;
7795;SDS011;3942;51.518;6.912;2024-02-26T07:02:54;5.65;;;3.83;;
7795;SDS011;3942;51.518;6.912;2024-02-26T07:07:56;18.42;;;10.77;;
7795;SDS011;3942;51.518;6.912;2024-02-26T07:13:00;6.10;;;3.80;;
7795;SDS011;3942;51.518;6.912;2024-02-26T07:18:02;7.47;;;4.72;;
7795;SDS011;3942;51.518;6.912;2024-02-26T07:23:04;6.18;;;3.83;;
7795;SDS011;3942;51.518;6.912;2024-02-26T07:28:08;7.22;;;3.90;;
7795;SDS011;3942;51.518;6.912;2024-02-26T07:33:10;5.72;;;4.25;;
7795;SDS011;3942;51.518;6.912;2024-02-26T07:38:12;10.35;;;6.28;;
7795;SDS011;3942;51.518;6.912;2024-02-26T07:43:15;9.40;;;5.53;;
7795;SDS011;3942;51.518;6.912;2024-02-26T07:48:18;5.40;;;3.92;;
7795;SDS011;3942;51.518;6.912;2024-02-26T07:53:20;7.60;;;4.47;;
7795;SDS011;3942;51.518;6.912;2024-02-26T07:58:23;5.63;;;3.30;;
7795;SDS011;3942;51.518;6.912;2024-02-26T08:03:25;4.88;;;2.97;;
7795;SDS011;3942;51.518;6.912;2024-02-26T08:08:28;10.02;;;3.78;;
7795;SDS011;3942;51.518;6.912;2024-02-26T08:13:31;6.05;;;3.70;;
7795;SDS011;3942;51.518;6.912;2024-02-26T08:18:33;5.70;;;4.05;;
7795;SDS011;3942;51.518;6.912;2024-02-26T08:23:35;5.68;;;3.17;;
7795;SDS011;3942;51.518;6.912;2024-02-26T08:28:39;4.65;;;2.83;;
7795;SDS011;3942;51.518;6.912;2024-02-26T08:33:41;5.80;;;3.88;;
7795;SDS011;3942;51.518;6.912;2024-02-26T08:38:43;6.90;;;4.60;;
7795;SDS011;3942;51.518;6.912;2024-02-26T08:43:47;9.13;;;4.38;;
7795;SDS011;3942;51.518;6.912;2024-02-26T08:48:49;7.88;;;4.40;;
7795;SDS011;3942;51.518;6.912;2024-02-26T08:53:51;5.80;;;4.00;;
7795;SDS011;3942;51.518;6.912;2024-02-26T08:58:55;6.10;;;4.20;;
7795;SDS011;3942;51.518;6.912;2024-02-26T09:03:59;7.07;;;4.50;;
7795;SDS011;3942;51.518;6.912;2024-02-26T09:09:01;7.15;;;4.82;;
7795;SDS011;3942;51.518;6.912;2024-02-26T09:14:05;7.82;;;3.53;;
7795;SDS011;3942;51.518;6.912;2024-02-26T09:19:08;5.45;;;4.07;;
7795;SDS011;3942;51.518;6.912;2024-02-26T09:24:10;4.95;;;2.60;;
7795;SDS011;3942;51.518;6.912;2024-02-26T09:29:13;7.45;;;4.18;;
7795;SDS011;3942;51.518;6.912;2024-02-26T09:34:15;4.22;;;3.53;;
7795;SDS011;3942;51.518;6.912;2024-02-26T09:39:17;4.65;;;3.92;;
7795;SDS011;3942;51.518;6.912;2024-02-26T09:44:23;5.20;;;3.08;;
7795;SDS011;3942;51.518;6.912;2024-02-26T09:49:26;5.85;;;3.97;;
7795;SDS011;3942;51.518;6.912;2024-02-26T09:54:28;7.57;;;4.45;;
7795;SDS011;3942;51.518;6.912;2024-02-26T09:59:35;8.18;;;4.70;;
7795;SDS011;3942;51.518;6.912;2024-02-26T10:04:39;6.85;;;4.38;;
7795;SDS011;3942;51.518;6.912;2024-02-26T10:09:41;8.45;;;5.70;;
7795;SDS011;3942;51.518;6.912;2024-02-26T10:14:45;7.80;;;4.97;;
7795;SDS011;3942;51.518;6.912;2024-02-26T10:19:47;8.18;;;5.55;;
7795;SDS011;3942;51.518;6.912;2024-02-26T10:24:51;7.22;;;4.25;;
7795;SDS011;3942;51.518;6.912;2024-02-26T10:29:57;10.05;;;5.47;;
7795;SDS011;3942;51.518;6.912;2024-02-26T10:34:59;9.35;;;6.20;;
7795;SDS011;3942;51.518;6.912;2024-02-26T10:40:02;6.50;;;4.35;;
7795;SDS011;3942;51.518;6.912;2024-02-26T10:45:06;8.40;;;4.88;;
7795;SDS011;3942;51.518;6.912;2024-02-26T10:50:09;8.68;;;5.90;;
7795;SDS011;3942;51.518;6.912;2024-02-26T10:55:14;11.68;;;6.80;;
7795;SDS011;3942;51.518;6.912;2024-02-26T11:00:20;7.65;;;5.43;;
7795;SDS011;3942;51.518;6.912;2024-02-26T11:05:22;11.52;;;7.07;;
7795;SDS011;3942;51.518;6.912;2024-02-26T11:10:24;12.30;;;6.28;;
7795;SDS011;3942;51.518;6.912;2024-02-26T11:15:29;9.35;;;5.72;;
7795;SDS011;3942;51.518;6.912;2024-02-26T11:20:33;9.88;;;5.20;;
7795;SDS011;3942;51.518;6.912;2024-02-26T11:25:35;12.38;;;5.53;;
7795;SDS011;3942;51.518;6.912;2024-02-26T11:30:41;9.77;;;6.15;;
7795;SDS011;3942;51.518;6.912;2024-02-26T11:35:45;9.10;;;5.80;;
7795;SDS011;3942;51.518;6.912;2024-02-26T11:40:47;10.85;;;6.88;;
7795;SDS011;3942;51.518;6.912;2024-02-26T11:45:51;10.82;;;6.20;;
7795;SDS011;3942;51.518;6.912;2024-02-26T11:50:54;10.15;;;7.18;;
7795;SDS011;3942;51.518;6.912;2024-02-26T12:06:50;13.50;;;8.30;;
7795;SDS011;3942;51.518;6.912;2024-02-26T12:11:52;11.85;;;8.40;;
7795;SDS011;3942;51.518;6.912;2024-02-26T12:16:57;12.18;;;7.63;;
7795;SDS011;3942;51.518;6.912;2024-02-26T12:22:01;15.18;;;6.78;;
7795;SDS011;3942;51.518;6.912;2024-02-26T12:27:03;11.45;;;7.15;;
7795;SDS011;3942;51.518;6.912;2024-02-26T12:32:06;13.27;;;7.55;;
7795;SDS011;3942;51.518;6.912;2024-02-26T12:37:09;11.98;;;7.47;;
7795;SDS011;3942;51.518;6.912;2024-02-26T12:42:12;12.95;;;9.52;;
7795;SDS011;3942;51.518;6.912;2024-02-26T12:47:14;11.60;;;7.85;;
7795;SDS011;3942;51.518;6.912;2024-02-26T12:52:18;11.80;;;8.52;;
7795;SDS011;3942;51.518;6.912;2024-02-26T12:57:21;11.00;;;7.63;;
7795;SDS011;3942;51.518;6.912;2024-02-26T13:02:24;9.48;;;7.05;;
7795;SDS011;3942;51.518;6.912;2024-02-26T13:07:28;13.52;;;7.18;;
7795;SDS011;3942;51.518;6.912;2024-02-26T13:12:31;9.70;;;6.85;;
7795;SDS011;3942;51.518;6.912;2024-02-26T13:17:33;8.25;;;5.35;;
7795;SDS011;3942;51.518;6.912;2024-02-26T13:22:37;9.48;;;6.43;;
7795;SDS011;3942;51.518;6.912;2024-02-26T13:27:39;10.95;;;6.57;;
7795;SDS011;3942;51.518;6.912;2024-02-26T13:32:41;8.60;;;5.07;;
7795;SDS011;3942;51.518;6.912;2024-02-26T13:37:45;7.88;;;4.63;;
7795;SDS011;3942;51.518;6.912;2024-02-26T13:42:47;5.88;;;4.30;;
7795;SDS011;3942;51.518;6.912;2024-02-26T13:47:49;6.50;;;4.70;;
7795;SDS011;3942;51.518;6.912;2024-02-26T13:52:53;6.55;;;4.70;;
7795;SDS011;3942;51.518;6.912;2024-02-26T13:57:56;9.65;;;5.55;;
7795;SDS011;3942;51.518;6.912;2024-02-26T14:02:58;10.95;;;4.43;;
7795;SDS011;3942;51.518;6.912;2024-02-26T14:08:02;7.57;;;4.45;;
7795;SDS011;3942;51.518;6.912;2024-02-26T14:13:05;8.10;;;3.55;;
7795;SDS011;3942;51.518;6.912;2024-02-26T14:18:07;7.80;;;5.28;;
7795;SDS011;3942;51.518;6.912;2024-02-26T14:23:10;7.75;;;5.35;;
7795;SDS011;3942;51.518;6.912;2024-02-26T14:28:12;8.00;;;5.15;;
7795;SDS011;3942;51.518;6.912;2024-02-26T14:33:14;8.38;;;4.65;;
7795;SDS011;3942;51.518;6.912;2024-02-26T14:38:18;6.38;;;4.85;;
7795;SDS011;3942;51.518;6.912;2024-02-26T14:43:20;6.53;;;4.93;;
7795;SDS011;3942;51.518;6.912;2024-02-26T14:48:23;7.28;;;4.70;;
7795;SDS011;3942;51.518;6.912;2024-02-26T14:53:26;6.50;;;4.72;;
7795;SDS011;3942;51.518;6.912;2024-02-26T14:58:28;8.20;;;4.90;;
7795;SDS011;3942;51.518;6.912;2024-02-26T15:03:30;5.63;;;3.90;;
7795;SDS011;3942;51.518;6.912;2024-02-26T15:08:34;15.77;;;6.63;;
7795;SDS011;3942;51.518;6.912;2024-02-26T15:13:37;9.07;;;4.68;;
7795;SDS011;3942;51.518;6.912;2024-02-26T15:18:39;10.50;;;5.47;;
7795;SDS011;3942;51.518;6.912;2024-02-26T15:23:43;7.78;;;4.63;;
7795;SDS011;3942;51.518;6.912;2024-02-26T15:28:45;6.75;;;3.92;;
7795;SDS011;3942;51.518;6.912;2024-02-26T15:33:48;5.90;;;4.35;;
7795;SDS011;3942;51.518;6.912;2024-02-26T15:38:52;6.90;;;4.82;;
7795;SDS011;3942;51.518;6.912;2024-02-26T15:43:53;8.40;;;4.45;;
7795;SDS011;3942;51.518;6.912;2024-02-26T15:48:56;8.07;;;5.32;;
7795;SDS011;3942;51.518;6.912;2024-02-26T15:53:59;9.43;;;5.75;;
7795;SDS011;3942;51.518;6.912;2024-02-26T15:59:02;8.70;;;5.88;;
7795;SDS011;3942;51.518;6.912;2024-02-26T16:04:04;9.85;;;6.22;;
7795;SDS011;3942;51.518;6.912;2024-02-26T16:09:08;9.20;;;6.35;;
7795;SDS011;3942;51.518;6.912;2024-02-26T16:14:12;11.65;;;6.90;;
7795;SDS011;3942;51.518;6.912;2024-02-26T16:19:22;9.45;;;6.05;;
7795;SDS011;3942;51.518;6.912;2024-02-26T16:24:26;14.10;;;8.75;;
7795;SDS011;3942;51.518;6.912;2024-02-26T16:29:28;13.77;;;7.95;;
7795;SDS011;3942;51.518;6.912;2024-02-26T16:34:30;11.10;;;6.78;;
7795;SDS011;3942;51.518;6.912;2024-02-26T16:39:35;14.65;;;9.48;;
7795;SDS011;3942;51.518;6.912;2024-02-26T16:44:37;12.25;;;8.13;;
7795;SDS011;3942;51.518;6.912;2024-02-26T17:13:22;8.25;;;5.88;;
7795;SDS011;3942;51.518;6.912;2024-02-26T17:18:24;10.50;;;6.32;;
7795;SDS011;3942;51.518;6.912;2024-02-26T17:23:26;11.13;;;6.75;;
7795;SDS011;3942;51.518;6.912;2024-02-26T17:28:33;8.20;;;5.90;;
7795;SDS011;3942;51.518;6.912;2024-02-26T17:33:40;11.85;;;7.72;;
7795;SDS011;3942;51.518;6.912;2024-02-26T17:38:42;11.07;;;7.18;;
7795;SDS011;3942;51.518;6.912;2024-02-26T17:43:47;11.60;;;7.30;;
7795;SDS011;3942;51.518;6.912;2024-02-26T17:48:49;11.23;;;6.78;;
7795;SDS011;3942;51.518;6.912;2024-02-26T17:53:51;13.48;;;7.45;;
7795;SDS011;3942;51.518;6.912;2024-02-26T17:58:55;13.15;;;7.95;;
7795;SDS011;3942;51.518;6.912;2024-02-26T18:03:57;12.23;;;9.05;;
7795;SDS011;3942;51.518;6.912;2024-02-26T18:08:59;11.85;;;8.13;;
7795;SDS011;3942;51.518;6.912;2024-02-26T18:14:02;14.93;;;8.02;;
7795;SDS011;3942;51.518;6.912;2024-02-26T18:19:05;15.73;;;8.90;;
7795;SDS011;3942;51.518;6.912;2024-02-26T18:24:07;12.02;;;7.72;;
7795;SDS011;3942;51.518;6.912;2024-02-26T18:29:11;17.10;;;9.77;;
7795;SDS011;3942;51.518;6.912;2024-02-26T18:34:13;15.25;;;9.98;;
7795;SDS011;3942;51.518;6.912;2024-02-26T18:39:15;16.95;;;10.77;;
7795;SDS011;3942;51.518;6.912;2024-02-26T18:44:20;21.30;;;11.48;;
7795;SDS011;3942;51.518;6.912;2024-02-26T18:49:22;15.98;;;9.68;;
7795;SDS011;3942;51.518;6.912;2024-02-26T18:54:25;15.52;;;9.48;;
7795;SDS011;3942;51.518;6.912;2024-02-26T18:59:28;20.67;;;10.23;;
7795;SDS011;3942;51.518;6.912;2024-02-26T19:04:30;16.20;;;10.38;;
7795;SDS011;3942;51.518;6.912;2024-02-26T19:09:33;19.35;;;11.38;;
7795;SDS011;3942;51.518;6.912;2024-02-26T19:14:37;20.10;;;12.85;;
7795;SDS011;3942;51.518;6.912;2024-02-26T19:19:40;17.52;;;10.60;;
7795;SDS011;3942;51.518;6.912;2024-02-26T19:24:42;16.20;;;11.38;;
7795;SDS011;3942;51.518;6.912;2024-02-26T19:29:45;18.35;;;11.40;;
7795;SDS011;3942;51.518;6.912;2024-02-26T19:34:48;17.02;;;10.82;;
7795;SDS011;3942;51.518;6.912;2024-02-26T19:39:50;15.35;;;9.98;;
7795;SDS011;3942;51.518;6.912;2024-02-26T19:44:55;23.10;;;12.98;;
7795;SDS011;3942;51.518;6.912;2024-02-26T19:49:58;23.88;;;13.38;;
7795;SDS011;3942;51.518;6.912;2024-02-26T19:55:00;20.48;;;13.07;;
7795;SDS011;3942;51.518;6.912;2024-02-26T20:00:07;19.17;;;12.48;;
7795;SDS011;3942;51.518;6.912;2024-02-26T20:05:09;20.17;;;13.27;;
7795;SDS011;3942;51.518;6.912;2024-02-26T20:10:12;26.45;;;16.13;;
7795;SDS011;3942;51.518;6.912;2024-02-26T20:15:15;25.27;;;16.77;;
7795;SDS011;3942;51.518;6.912;2024-02-26T20:20:17;27.65;;;16.80;;
7795;SDS011;3942;51.518;6.912;2024-02-26T20:25:20;22.02;;;14.40;;
7795;SDS011;3942;51.518;6.912;2024-02-26T20:30:23;31.23;;;21.60;;
7795;SDS011;3942;51.518;6.912;2024-02-26T20:35:27;27.92;;;16.58;;
7795;SDS011;3942;51.518;6.912;2024-02-26T20:40:29;29.73;;;18.35;;
7795;SDS011;3942;51.518;6.912;2024-02-26T20:45:32;30.67;;;20.02;;
7795;SDS011;3942;51.518;6.912;2024-02-26T20:50:36;34.67;;;18.95;;
7795;SDS011;3942;51.518;6.912;2024-02-26T20:55:38;32.65;;;20.83;;
7795;SDS011;3942;51.518;6.912;2024-02-26T21:00:42;30.90;;;18.17;;
7795;SDS011;3942;51.518;6.912;2024-02-26T21:05:44;29.92;;;18.98;;
7795;SDS011;3942;51.518;6.912;2024-02-26T21:10:46;31.90;;;22.52;;
7795;SDS011;3942;51.518;6.912;2024-02-26T21:15:52;33.47;;;21.38;;
7795;SDS011;3942;51.518;6.912;2024-02-26T21:20:54;34.10;;;21.42;;
7795;SDS011;3942;51.518;6.912;2024-02-26T21:25:57;34.90;;;20.45;;
7795;SDS011;3942;51.518;6.912;2024-02-26T21:31:00;37.53;;;23.48;;
7795;SDS011;3942;51.518;6.912;2024-02-26T21:36:02;35.60;;;21.85;;
7795;SDS011;3942;51.518;6.912;2024-02-26T21:41:04;33.35;;;19.58;;
7795;SDS011;3942;51.518;6.912;2024-02-26T21:46:08;32.60;;;20.05;;
7795;SDS011;3942;51.518;6.912;2024-02-26T21:51:09;38.72;;;22.85;;
7795;SDS011;3942;51.518;6.912;2024-02-26T21:56:13;37.20;;;22.63;;
7795;SDS011;3942;51.518;6.912;2024-02-26T22:01:16;36.58;;;22.83;;
7795;SDS011;3942;51.518;6.912;2024-02-26T22:06:18;35.17;;;23.23;;
7795;SDS011;3942;51.518;6.912;2024-02-26T22:11:21;35.55;;;22.73;;
7795;SDS011;3942;51.518;6.912;2024-02-26T22:16:25;44.45;;;27.17;;
7795;SDS011;3942;51.518;6.912;2024-02-26T22:21:27;38.72;;;23.88;;
7795;SDS011;3942;51.518;6.912;2024-02-26T22:26:29;42.63;;;26.92;;
7795;SDS011;3942;51.518;6.912;2024-02-26T22:31:33;41.30;;;24.52;;
7795;SDS011;3942;51.518;6.912;2024-02-26T22:36:36;41.25;;;24.88;;
7795;SDS011;3942;51.518;6.912;2024-02-26T22:41:39;39.38;;;22.92;;
7795;SDS011;3942;51.518;6.912;2024-02-26T22:46:43;40.88;;;23.48;;
7795;SDS011;3942;51.518;6.912;2024-02-26T22:51:45;33.58;;;18.90;;
7795;SDS011;3942;51.518;6.912;2024-02-26T22:56:48;37.90;;;21.25;;
7795;SDS011;3942;51.518;6.912;2024-02-26T23:01:52;32.80;;;22.30;;
7795;SDS011;3942;51.518;6.912;2024-02-26T23:06:54;40.22;;;24.00;;
7795;SDS011;3942;51.518;6.912;2024-02-26T23:11:56;40.72;;;26.00;;
7795;SDS011;3942;51.518;6.912;2024-02-26T23:16:59;35.67;;;22.05;;
7795;SDS011;3942;51.518;6.912;2024-02-26T23:22:01;33.20;;;19.10;;
7795;SDS011;3942;51.518;6.912;2024-02-26T23:27:04;35.38;;;20.98;;
7795;SDS011;3942;51.518;6.912;2024-02-26T23:32:07;36.75;;;21.60;;
7795;SDS011;3942;51.518;6.912;2024-02-26T23:37:09;36.28;;;22.50;;
7795;SDS011;3942;51.518;6.912;2024-02-26T23:42:11;37.92;;;21.70;;
7795;SDS011;3942;51.518;6.912;2024-02-26T23:47:15;35.15;;;19.27;;
7795;SDS011;3942;51.518;6.912;2024-02-26T23:52:17;33.03;;;19.95;;
7795;SDS011;3942;51.518;6.912;2024-02-26T23:57:19;34.88;;;18.90;;
